Applegate, Michigan
Current Conditions -  °F | °C
As of 10:00 PM on Saturday 22 Nov 2014 (Local Time) from CYZR Reporting Station
Haze Haze  
Wind Chill: 36°   Ceiling: 2300
Heat Index: 41°   Visibility: 5mi
Dew Point: 39°   Wind: 7mph
Humidity: 93%   Direction: 190°S
Pressure: 29.93"   Gusts: NA
Location:  43.36°N, 82.64°W
Report Text: CYZR 230300Z AUTO 19006KT 5SM BR OVC023 05/04 A2993 RMK SLP139
Loading
Personal Weather Stations






























Interactive Weather Map New forecast layout! Learn more

10-Day Weather Forecast

Advertisements
Track Severe Weather on mobile